sensor_id;sensor_type;location;lat;lon;timestamp;pressure;altitude;pressure_sealevel;temperature;humidity
55757;BME280;41676;44.610;44.078;2022-10-31T00:04:35;100091.19;;;11.40;95.96
55757;BME280;41676;44.610;44.078;2022-10-31T00:09:35;100152.13;;;11.87;95.79
55757;BME280;41676;44.610;44.078;2022-10-31T00:14:36;100158.19;;;11.96;95.50
55757;BME280;41676;44.610;44.078;2022-10-31T00:19:37;100150.94;;;12.05;95.22
55757;BME280;41676;44.610;44.078;2022-10-31T00:24:38;100145.53;;;12.13;94.86
55757;BME280;41676;44.610;44.078;2022-10-31T00:29:38;100154.81;;;12.17;94.44
55757;BME280;41676;44.610;44.078;2022-10-31T00:34:39;100064.06;;;11.74;93.57
55757;BME280;41676;44.610;44.078;2022-10-31T00:39:40;100134.81;;;12.21;93.72
55757;BME280;41676;44.610;44.078;2022-10-31T00:44:41;100000.19;;;11.45;93.61
55757;BME280;41676;44.610;44.078;2022-10-31T00:49:41;100127.34;;;12.31;92.86
55757;BME280;41676;44.610;44.078;2022-10-31T00:54:42;100016.09;;;11.68;91.95
55757;BME280;41676;44.610;44.078;2022-10-31T00:59:43;100110.00;;;12.36;91.59
55757;BME280;41676;44.610;44.078;2022-10-31T01:04:44;100118.53;;;12.46;90.96
55757;BME280;41676;44.610;44.078;2022-10-31T01:09:44;100036.84;;;12.02;90.10
55757;BME280;41676;44.610;44.078;2022-10-31T01:14:45;100034.38;;;12.00;90.30
55757;BME280;41676;44.610;44.078;2022-10-31T01:19:46;100014.19;;;11.91;89.76
55757;BME280;41676;44.610;44.078;2022-10-31T01:24:47;100113.22;;;12.46;90.21
55757;BME280;41676;44.610;44.078;2022-10-31T01:29:47;100047.41;;;12.10;90.40
55757;BME280;41676;44.610;44.078;2022-10-31T01:34:48;100113.94;;;12.40;90.75
55757;BME280;41676;44.610;44.078;2022-10-31T01:39:49;100096.69;;;12.36;90.89
55757;BME280;41676;44.610;44.078;2022-10-31T01:45:00;100039.34;;;12.03;91.44
55757;BME280;41676;44.610;44.078;2022-10-31T01:50:06;100078.31;;;12.26;91.18
55757;BME280;41676;44.610;44.078;2022-10-31T01:55:17;100114.97;;;12.39;91.91
55757;BME280;41676;44.610;44.078;2022-10-31T02:00:20;100087.13;;;12.26;91.23
55757;BME280;41676;44.610;44.078;2022-10-31T02:05:25;100094.78;;;12.29;91.10
55757;BME280;41676;44.610;44.078;2022-10-31T02:10:27;100104.69;;;12.36;91.17
55757;BME280;41676;44.610;44.078;2022-10-31T02:15:28;100069.34;;;12.12;92.11
55757;BME280;41676;44.610;44.078;2022-10-31T02:27:08;100069.50;;;12.25;95.76
55757;BME280;41676;44.610;44.078;2022-10-31T02:37:11;100064.09;;;12.19;94.59
55757;BME280;41676;44.610;44.078;2022-10-31T02:47:16;100042.59;;;12.20;93.00
55757;BME280;41676;44.610;44.078;2022-10-31T02:52:25;100040.22;;;12.25;93.36
55757;BME280;41676;44.610;44.078;2022-10-31T02:57:32;100018.84;;;12.19;92.38
55757;BME280;41676;44.610;44.078;2022-10-31T03:08:48;100017.59;;;12.36;90.33
55757;BME280;41676;44.610;44.078;2022-10-31T03:14:06;99928.00;;;11.92;90.17
55757;BME280;41676;44.610;44.078;2022-10-31T03:19:19;99985.94;;;12.26;90.53
55757;BME280;41676;44.610;44.078;2022-10-31T03:24:28;100000.16;;;12.33;91.13
55757;BME280;41676;44.610;44.078;2022-10-31T03:29:33;100010.22;;;12.38;90.91
55757;BME280;41676;44.610;44.078;2022-10-31T03:34:35;100012.63;;;12.48;90.49
55757;BME280;41676;44.610;44.078;2022-10-31T03:39:40;100002.56;;;12.28;91.88
55757;BME280;41676;44.610;44.078;2022-10-31T03:44:48;99994.28;;;12.23;92.68
55757;BME280;41676;44.610;44.078;2022-10-31T03:49:52;99989.53;;;12.19;93.03
55757;BME280;41676;44.610;44.078;2022-10-31T03:54:56;99999.38;;;12.18;94.36
55757;BME280;41676;44.610;44.078;2022-10-31T04:00:13;99999.53;;;12.17;97.60
55757;BME280;41676;44.610;44.078;2022-10-31T04:05:16;99967.03;;;11.85;95.79
55757;BME280;41676;44.610;44.078;2022-10-31T04:10:18;99910.31;;;11.40;96.95
55757;BME280;41676;44.610;44.078;2022-10-31T04:15:20;100001.06;;;11.90;97.79
55757;BME280;41676;44.610;44.078;2022-10-31T04:20:33;99991.34;;;11.97;100.00
55757;BME280;41676;44.610;44.078;2022-10-31T04:25:34;99987.00;;;11.96;98.68
55757;BME280;41676;44.610;44.078;2022-10-31T04:30:34;99966.34;;;11.83;99.46
55757;BME280;41676;44.610;44.078;2022-10-31T04:35:35;99993.78;;;11.98;99.82
55757;BME280;41676;44.610;44.078;2022-10-31T04:40:36;99996.28;;;12.00;100.00
55757;BME280;41676;44.610;44.078;2022-10-31T04:45:37;100000.66;;;12.07;100.00
55757;BME280;41676;44.610;44.078;2022-10-31T04:50:38;99966.34;;;11.98;100.00
55757;BME280;41676;44.610;44.078;2022-10-31T04:55:39;99978.38;;;12.08;100.00
55757;BME280;41676;44.610;44.078;2022-10-31T05:00:39;99975.06;;;12.06;100.00
55757;BME280;41676;44.610;44.078;2022-10-31T05:05:41;99964.22;;;11.93;100.00
55757;BME280;41676;44.610;44.078;2022-10-31T05:10:42;99978.38;;;12.08;100.00
55757;BME280;41676;44.610;44.078;2022-10-31T05:15:42;99937.25;;;11.96;100.00
55757;BME280;41676;44.610;44.078;2022-10-31T05:20:43;99958.72;;;12.09;100.00
55757;BME280;41676;44.610;44.078;2022-10-31T05:25:44;99957.69;;;12.10;100.00
55757;BME280;41676;44.610;44.078;2022-10-31T05:30:45;99961.13;;;12.26;100.00
55757;BME280;41676;44.610;44.078;2022-10-31T05:35:45;99963.41;;;12.29;100.00
55757;BME280;41676;44.610;44.078;2022-10-31T05:40:46;99948.34;;;12.36;100.00
55757;BME280;41676;44.610;44.078;2022-10-31T05:45:47;99945.75;;;12.43;100.00
55757;BME280;41676;44.610;44.078;2022-10-31T05:50:48;99946.84;;;12.48;100.00
55757;BME280;41676;44.610;44.078;2022-10-31T05:55:49;99844.06;;;11.96;100.00
55757;BME280;41676;44.610;44.078;2022-10-31T06:00:50;99920.69;;;12.37;99.91
55757;BME280;41676;44.610;44.078;2022-10-31T06:05:50;99931.03;;;12.47;100.00
55757;BME280;41676;44.610;44.078;2022-10-31T06:10:51;99929.38;;;12.46;100.00
55757;BME280;41676;44.610;44.078;2022-10-31T06:15:54;99931.66;;;12.49;100.00
55757;BME280;41676;44.610;44.078;2022-10-31T06:20:54;99911.63;;;12.53;100.00
55757;BME280;41676;44.610;44.078;2022-10-31T06:25:55;99870.69;;;12.32;100.00
55757;BME280;41676;44.610;44.078;2022-10-31T06:30:56;99835.03;;;12.12;100.00
55757;BME280;41676;44.610;44.078;2022-10-31T06:35:57;99901.47;;;12.63;100.00
55757;BME280;41676;44.610;44.078;2022-10-31T06:41:01;99900.97;;;12.74;100.00
55757;BME280;41676;44.610;44.078;2022-10-31T06:46:04;99879.69;;;12.81;100.00
55757;BME280;41676;44.610;44.078;2022-10-31T06:51:05;99887.47;;;13.11;100.00
55757;BME280;41676;44.610;44.078;2022-10-31T06:56:06;99887.13;;;13.20;100.00
55757;BME280;41676;44.610;44.078;2022-10-31T07:01:06;99899.41;;;13.21;100.00
55757;BME280;41676;44.610;44.078;2022-10-31T07:06:07;99908.88;;;13.24;99.98
55757;BME280;41676;44.610;44.078;2022-10-31T07:11:08;99836.72;;;12.97;100.00
55757;BME280;41676;44.610;44.078;2022-10-31T07:16:09;99896.09;;;13.41;100.00
55757;BME280;41676;44.610;44.078;2022-10-31T07:21:14;99912.69;;;13.43;99.95
55757;BME280;41676;44.610;44.078;2022-10-31T07:26:15;99860.81;;;13.11;100.00
55757;BME280;41676;44.610;44.078;2022-10-31T07:31:15;99867.69;;;12.98;100.00
55757;BME280;41676;44.610;44.078;2022-10-31T07:36:16;99914.75;;;13.41;100.00
55757;BME280;41676;44.610;44.078;2022-10-31T07:41:17;99820.91;;;12.89;100.00
55757;BME280;41676;44.610;44.078;2022-10-31T07:46:18;99869.97;;;13.36;100.00
55757;BME280;41676;44.610;44.078;2022-10-31T07:51:18;99836.34;;;13.42;100.00
55757;BME280;41676;44.610;44.078;2022-10-31T07:56:19;99843.78;;;13.46;100.00
55757;BME280;41676;44.610;44.078;2022-10-31T08:01:20;99802.31;;;13.44;100.00
55757;BME280;41676;44.610;44.078;2022-10-31T08:06:21;99666.47;;;12.88;100.00
55757;BME280;41676;44.610;44.078;2022-10-31T08:11:21;99797.88;;;13.84;100.00
55757;BME280;41676;44.610;44.078;2022-10-31T08:16:22;99789.50;;;13.94;100.00
55757;BME280;41676;44.610;44.078;2022-10-31T08:21:23;99784.97;;;14.01;100.00
55757;BME280;41676;44.610;44.078;2022-10-31T08:26:24;99779.44;;;14.09;100.00
55757;BME280;41676;44.610;44.078;2022-10-31T08:31:24;99762.59;;;14.15;100.00
55757;BME280;41676;44.610;44.078;2022-10-31T08:36:28;99693.56;;;13.86;100.00
55757;BME280;41676;44.610;44.078;2022-10-31T08:41:29;99750.69;;;14.25;100.00
55757;BME280;41676;44.610;44.078;2022-10-31T08:46:30;99743.47;;;14.32;100.00
55757;BME280;41676;44.610;44.078;2022-10-31T08:51:32;99747.81;;;14.33;99.32
55757;BME280;41676;44.610;44.078;2022-10-31T08:56:32;99701.38;;;13.94;98.46
55757;BME280;41676;44.610;44.078;2022-10-31T09:01:33;99748.81;;;14.38;98.57
55757;BME280;41676;44.610;44.078;2022-10-31T09:06:34;99758.28;;;14.54;97.82
55757;BME280;41676;44.610;44.078;2022-10-31T09:11:35;99724.13;;;14.70;96.91
55757;BME280;41676;44.610;44.078;2022-10-31T09:16:35;99703.16;;;14.53;95.66
55757;BME280;41676;44.610;44.078;2022-10-31T09:21:36;99746.91;;;14.86;94.47
55757;BME280;41676;44.610;44.078;2022-10-31T09:26:37;99686.53;;;14.58;93.95
55757;BME280;41676;44.610;44.078;2022-10-31T09:31:38;99736.91;;;15.13;93.67
55757;BME280;41676;44.610;44.078;2022-10-31T09:36:39;99717.59;;;15.11;93.97
55757;BME280;41676;44.610;44.078;2022-10-31T09:47:20;99710.78;;;15.53;90.59
55757;BME280;41676;44.610;44.078;2022-10-31T09:52:28;99645.59;;;15.41;89.24
55757;BME280;41676;44.610;44.078;2022-10-31T09:57:34;99640.00;;;15.42;85.93
55757;BME280;41676;44.610;44.078;2022-10-31T10:02:52;99694.00;;;15.71;84.06
55757;BME280;41676;44.610;44.078;2022-10-31T10:08:07;99617.56;;;15.12;85.68
55757;BME280;41676;44.610;44.078;2022-10-31T10:30:02;99669.56;;;15.22;87.95
55757;BME280;41676;44.610;44.078;2022-10-31T10:35:41;99653.22;;;15.37;86.01
55757;BME280;41676;44.610;44.078;2022-10-31T10:40:43;99637.00;;;15.32;85.84
55757;BME280;41676;44.610;44.078;2022-10-31T10:51:21;99623.19;;;15.35;81.97
55757;BME280;41676;44.610;44.078;2022-10-31T11:01:41;99619.84;;;15.40;82.57
55757;BME280;41676;44.610;44.078;2022-10-31T11:06:42;99587.34;;;15.36;81.35
55757;BME280;41676;44.610;44.078;2022-10-31T11:11:43;99592.75;;;15.55;80.58
55757;BME280;41676;44.610;44.078;2022-10-31T11:16:51;99592.94;;;15.60;77.79
55757;BME280;41676;44.610;44.078;2022-10-31T11:21:54;99566.66;;;15.50;79.25
55757;BME280;41676;44.610;44.078;2022-10-31T11:27:16;99481.91;;;15.19;75.09
55757;BME280;41676;44.610;44.078;2022-10-31T11:32:22;99538.09;;;15.69;75.20
55757;BME280;41676;44.610;44.078;2022-10-31T11:37:29;99537.22;;;15.75;75.58
55757;BME280;41676;44.610;44.078;2022-10-31T11:42:41;99420.88;;;15.09;73.68
55757;BME280;41676;44.610;44.078;2022-10-31T11:47:46;99543.09;;;15.84;73.36
55757;BME280;41676;44.610;44.078;2022-10-31T11:52:48;99535.34;;;15.75;73.96
55757;BME280;41676;44.610;44.078;2022-10-31T11:57:52;99524.72;;;15.69;74.09
55757;BME280;41676;44.610;44.078;2022-10-31T12:08:19;99499.22;;;15.41;74.99
55757;BME280;41676;44.610;44.078;2022-10-31T12:45:59;99537.88;;;15.45;73.61
55757;BME280;41676;44.610;44.078;2022-10-31T12:51:10;99523.50;;;15.40;74.20
55757;BME280;41676;44.610;44.078;2022-10-31T13:01:41;99456.13;;;14.74;73.36
55757;BME280;41676;44.610;44.078;2022-10-31T13:06:55;99528.50;;;15.11;74.52
55757;BME280;41676;44.610;44.078;2022-10-31T13:12:07;99547.22;;;15.04;75.26
55757;BME280;41676;44.610;44.078;2022-10-31T13:28:43;99571.78;;;14.50;82.89
55757;BME280;41676;44.610;44.078;2022-10-31T13:33:49;99576.00;;;14.26;84.84
55757;BME280;41676;44.610;44.078;2022-10-31T13:44:24;99576.91;;;13.93;84.71
55757;BME280;41676;44.610;44.078;2022-10-31T13:49:37;99572.81;;;13.77;89.59
55757;BME280;41676;44.610;44.078;2022-10-31T13:54:47;99577.75;;;13.67;87.93
55757;BME280;41676;44.610;44.078;2022-10-31T13:59:52;99596.22;;;13.48;88.38
55757;BME280;41676;44.610;44.078;2022-10-31T14:05:19;99547.34;;;12.95;92.03
55757;BME280;41676;44.610;44.078;2022-10-31T14:10:35;99610.78;;;13.19;94.67
55757;BME280;41676;44.610;44.078;2022-10-31T14:15:38;99555.88;;;12.64;93.16
55757;BME280;41676;44.610;44.078;2022-10-31T14:20:42;99623.41;;;12.91;93.90
55757;BME280;41676;44.610;44.078;2022-10-31T14:25:44;99613.31;;;12.79;94.73
55757;BME280;41676;44.610;44.078;2022-10-31T14:30:53;99551.69;;;12.34;96.08
55757;BME280;41676;44.610;44.078;2022-10-31T14:36:07;99590.69;;;12.55;94.64
55757;BME280;41676;44.610;44.078;2022-10-31T14:52:13;99644.59;;;12.51;93.90
55757;BME280;41676;44.610;44.078;2022-10-31T14:57:27;99564.59;;;11.96;94.35
55757;BME280;41676;44.610;44.078;2022-10-31T15:08:25;99663.97;;;12.38;96.88
55757;BME280;41676;44.610;44.078;2022-10-31T15:13:27;99585.91;;;11.75;94.54
55757;BME280;41676;44.610;44.078;2022-10-31T15:18:28;99639.88;;;12.12;96.08
55757;BME280;41676;44.610;44.078;2022-10-31T15:23:30;99663.47;;;12.21;97.32
55757;BME280;41676;44.610;44.078;2022-10-31T15:28:32;99603.03;;;11.65;98.53
55757;BME280;41676;44.610;44.078;2022-10-31T15:33:40;99699.47;;;12.17;100.00
55757;BME280;41676;44.610;44.078;2022-10-31T15:38:41;99705.16;;;12.07;100.00
55757;BME280;41676;44.610;44.078;2022-10-31T15:43:44;99682.31;;;11.92;100.00
55757;BME280;41676;44.610;44.078;2022-10-31T15:48:47;99550.81;;;11.08;100.00
55757;BME280;41676;44.610;44.078;2022-10-31T15:53:50;99615.34;;;11.45;100.00
55757;BME280;41676;44.610;44.078;2022-10-31T15:58:53;99675.53;;;11.89;100.00
55757;BME280;41676;44.610;44.078;2022-10-31T16:09:23;99664.53;;;11.99;100.00
55757;BME280;41676;44.610;44.078;2022-10-31T16:14:30;99574.56;;;11.31;100.00
55757;BME280;41676;44.610;44.078;2022-10-31T16:19:35;99677.78;;;11.92;100.00
55757;BME280;41676;44.610;44.078;2022-10-31T16:29:47;99657.34;;;11.71;100.00
55757;BME280;41676;44.610;44.078;2022-10-31T16:34:57;99665.97;;;11.73;100.00
55757;BME280;41676;44.610;44.078;2022-10-31T16:39:59;99666.09;;;11.65;100.00
55757;BME280;41676;44.610;44.078;2022-10-31T16:44:59;99574.56;;;11.10;100.00
55757;BME280;41676;44.610;44.078;2022-10-31T16:50:00;99626.25;;;11.50;100.00
55757;BME280;41676;44.610;44.078;2022-10-31T16:55:01;99557.22;;;11.14;100.00
55757;BME280;41676;44.610;44.078;2022-10-31T17:00:03;99633.41;;;11.50;100.00
55757;BME280;41676;44.610;44.078;2022-10-31T17:05:04;99630.16;;;11.54;100.00
55757;BME280;41676;44.610;44.078;2022-10-31T17:10:06;99562.34;;;10.94;100.00
55757;BME280;41676;44.610;44.078;2022-10-31T17:15:15;99601.66;;;11.20;100.00
55757;BME280;41676;44.610;44.078;2022-10-31T17:20:20;99651.66;;;11.31;100.00
55757;BME280;41676;44.610;44.078;2022-10-31T17:25:24;99671.59;;;11.20;100.00
55757;BME280;41676;44.610;44.078;2022-10-31T17:30:25;99709.38;;;11.16;100.00
55757;BME280;41676;44.610;44.078;2022-10-31T17:35:27;99719.66;;;11.04;100.00
55757;BME280;41676;44.610;44.078;2022-10-31T17:40:27;99718.03;;;10.88;100.00
55757;BME280;41676;44.610;44.078;2022-10-31T17:45:28;99703.84;;;10.81;100.00
55757;BME280;41676;44.610;44.078;2022-10-31T17:50:29;99706.22;;;10.76;100.00
55757;BME280;41676;44.610;44.078;2022-10-31T17:55:30;99671.69;;;10.61;100.00
55757;BME280;41676;44.610;44.078;2022-10-31T18:00:32;99692.22;;;10.52;100.00
55757;BME280;41676;44.610;44.078;2022-10-31T18:05:33;99708.72;;;10.48;98.68
55757;BME280;41676;44.610;44.078;2022-10-31T18:10:34;99785.25;;;10.30;96.87
55757;BME280;41676;44.610;44.078;2022-10-31T18:15:40;99776.16;;;9.78;96.94
55757;BME280;41676;44.610;44.078;2022-10-31T18:20:41;99809.44;;;9.57;97.64
55757;BME280;41676;44.610;44.078;2022-10-31T18:25:43;99737.31;;;8.68;97.93
55757;BME280;41676;44.610;44.078;2022-10-31T18:30:44;99896.84;;;8.62;96.59
55757;BME280;41676;44.610;44.078;2022-10-31T18:35:45;99948.75;;;7.72;96.30
55757;BME280;41676;44.610;44.078;2022-10-31T18:40:46;99991.63;;;7.31;94.96
55757;BME280;41676;44.610;44.078;2022-10-31T18:45:47;100022.09;;;7.00;96.05
55757;BME280;41676;44.610;44.078;2022-10-31T18:50:48;100031.63;;;6.75;95.27
55757;BME280;41676;44.610;44.078;2022-10-31T18:55:49;100046.94;;;6.71;94.65
55757;BME280;41676;44.610;44.078;2022-10-31T19:00:50;100060.06;;;6.63;94.24
55757;BME280;41676;44.610;44.078;2022-10-31T19:05:54;100029.72;;;6.31;93.70
55757;BME280;41676;44.610;44.078;2022-10-31T19:11:03;100103.25;;;6.44;93.40
55757;BME280;41676;44.610;44.078;2022-10-31T19:16:09;100036.88;;;5.84;92.95
55757;BME280;41676;44.610;44.078;2022-10-31T19:21:12;100142.75;;;6.26;93.21
55757;BME280;41676;44.610;44.078;2022-10-31T19:26:13;100123.59;;;6.24;93.78
55757;BME280;41676;44.610;44.078;2022-10-31T19:31:14;100129.56;;;6.26;94.08
55757;BME280;41676;44.610;44.078;2022-10-31T19:36:17;100138.94;;;6.11;93.18
55757;BME280;41676;44.610;44.078;2022-10-31T19:41:21;100083.84;;;5.51;93.32
55757;BME280;41676;44.610;44.078;2022-10-31T19:46:22;100164.94;;;5.86;93.32
55757;BME280;41676;44.610;44.078;2022-10-31T19:51:23;100193.78;;;5.98;93.43
55757;BME280;41676;44.610;44.078;2022-10-31T19:56:24;100138.63;;;5.57;93.49
55757;BME280;41676;44.610;44.078;2022-10-31T20:01:25;100106.47;;;5.34;93.29
55757;BME280;41676;44.610;44.078;2022-10-31T20:06:31;100228.88;;;5.98;93.18
55757;BME280;41676;44.610;44.078;2022-10-31T20:11:35;100241.94;;;5.90;93.08
55757;BME280;41676;44.610;44.078;2022-10-31T20:16:37;100215.72;;;5.69;92.07
55757;BME280;41676;44.610;44.078;2022-10-31T20:21:38;100222.25;;;5.75;91.64
55757;BME280;41676;44.610;44.078;2022-10-31T20:26:40;100198.81;;;5.42;90.94
55757;BME280;41676;44.610;44.078;2022-10-31T20:31:42;100223.06;;;5.46;90.68
55757;BME280;41676;44.610;44.078;2022-10-31T20:36:44;100230.28;;;5.63;90.63
55757;BME280;41676;44.610;44.078;2022-10-31T20:41:45;100251.22;;;5.75;90.57
55757;BME280;41676;44.610;44.078;2022-10-31T20:46:46;100162.06;;;5.12;89.93
55757;BME280;41676;44.610;44.078;2022-10-31T20:51:46;100260.50;;;5.59;90.24
55757;BME280;41676;44.610;44.078;2022-10-31T20:56:47;100162.72;;;4.94;89.46
55757;BME280;41676;44.610;44.078;2022-10-31T21:01:48;100272.00;;;5.48;89.68
55757;BME280;41676;44.610;44.078;2022-10-31T21:06:49;100271.31;;;5.56;89.03
55757;BME280;41676;44.610;44.078;2022-10-31T21:11:50;100176.44;;;5.08;89.78
55757;BME280;41676;44.610;44.078;2022-10-31T21:16:51;100260.78;;;5.46;89.70
55757;BME280;41676;44.610;44.078;2022-10-31T21:21:51;100185.72;;;5.02;89.53
55757;BME280;41676;44.610;44.078;2022-10-31T21:26:53;100271.75;;;5.52;89.76
55757;BME280;41676;44.610;44.078;2022-10-31T21:31:54;100292.94;;;5.50;89.89
55757;BME280;41676;44.610;44.078;2022-10-31T21:36:54;100221.19;;;5.08;90.10
55757;BME280;41676;44.610;44.078;2022-10-31T21:41:55;100244.53;;;5.32;89.76
55757;BME280;41676;44.610;44.078;2022-10-31T21:46:56;100202.78;;;5.08;89.80
55757;BME280;41676;44.610;44.078;2022-10-31T21:51:57;100298.38;;;5.58;90.07
55757;BME280;41676;44.610;44.078;2022-10-31T21:56:59;100311.53;;;5.58;89.18
55757;BME280;41676;44.610;44.078;2022-10-31T22:02:01;100317.97;;;5.65;89.38
55757;BME280;41676;44.610;44.078;2022-10-31T22:07:02;100199.47;;;5.06;90.32
55757;BME280;41676;44.610;44.078;2022-10-31T22:12:03;100234.69;;;5.43;90.01
55757;BME280;41676;44.610;44.078;2022-10-31T22:17:06;100305.50;;;5.97;90.60
55757;BME280;41676;44.610;44.078;2022-10-31T22:22:07;100198.81;;;5.33;90.37
55757;BME280;41676;44.610;44.078;2022-10-31T22:27:08;100313.84;;;6.02;90.63
55757;BME280;41676;44.610;44.078;2022-10-31T22:32:08;100277.44;;;5.66;89.98
55757;BME280;41676;44.610;44.078;2022-10-31T22:37:09;100306.00;;;5.71;89.35
55757;BME280;41676;44.610;44.078;2022-10-31T22:42:10;100324.59;;;5.79;89.39
55757;BME280;41676;44.610;44.078;2022-10-31T22:47:11;100318.63;;;5.67;88.70
55757;BME280;41676;44.610;44.078;2022-10-31T22:52:12;100331.25;;;5.73;88.52
55757;BME280;41676;44.610;44.078;2022-10-31T22:57:12;100322.94;;;5.68;88.58
55757;BME280;41676;44.610;44.078;2022-10-31T23:02:13;100335.44;;;5.66;88.52
55757;BME280;41676;44.610;44.078;2022-10-31T23:07:14;100176.63;;;4.66;88.26
55757;BME280;41676;44.610;44.078;2022-10-31T23:12:14;100321.81;;;5.52;88.60
55757;BME280;41676;44.610;44.078;2022-10-31T23:17:34;100327.78;;;5.54;88.37
55757;BME280;41676;44.610;44.078;2022-10-31T23:22:34;100349.16;;;5.60;88.90
55757;BME280;41676;44.610;44.078;2022-10-31T23:27:35;100357.16;;;5.49;88.43
55757;BME280;41676;44.610;44.078;2022-10-31T23:32:36;100345.72;;;5.29;88.11
55757;BME280;41676;44.610;44.078;2022-10-31T23:37:37;100271.72;;;4.82;87.76
55757;BME280;41676;44.610;44.078;2022-10-31T23:42:38;100368.00;;;5.15;85.96
55757;BME280;41676;44.610;44.078;2022-10-31T23:47:39;100350.16;;;4.88;84.94
55757;BME280;41676;44.610;44.078;2022-10-31T23:52:40;100361.50;;;4.89;84.71
55757;BME280;41676;44.610;44.078;2022-10-31T23:57:41;100282.75;;;4.24;84.38
